createdAt,value
2022-12-31T00:01:36.621Z,0.94
2022-12-31T00:04:08.638Z,1.20
2022-12-31T00:06:40.560Z,1.21
2022-12-31T00:09:12.622Z,1.16
2022-12-31T00:11:44.549Z,1.16
2022-12-31T00:14:16.507Z,1.18
2022-12-31T00:16:48.532Z,1.19
2022-12-31T00:19:20.529Z,1.07
2022-12-31T00:21:52.532Z,1.12
2022-12-31T00:24:24.485Z,1.18
2022-12-31T00:26:56.383Z,1.17
2022-12-31T00:29:28.232Z,1.18
2022-12-31T00:32:00.133Z,1.01
2022-12-31T00:34:31.972Z,1.09
2022-12-31T00:37:03.869Z,1.08
2022-12-31T00:39:35.733Z,1.02
2022-12-31T00:42:07.705Z,1.03
2022-12-31T00:44:39.649Z,0.94
2022-12-31T00:47:11.641Z,1.08
2022-12-31T00:49:43.738Z,0.82
2022-12-31T00:52:17.158Z,1.05
2022-12-31T00:54:49.115Z,1.12
2022-12-31T00:57:21.039Z,1.07
2022-12-31T00:59:53.101Z,1.04
2022-12-31T01:02:25.129Z,1.15
2022-12-31T01:04:57.128Z,1.20
2022-12-31T01:07:29.101Z,1.12
2022-12-31T01:10:01.070Z,1.13
2022-12-31T01:12:33.015Z,1.33
2022-12-31T01:15:05.516Z,1.28
2022-12-31T01:17:37.381Z,1.28
2022-12-31T01:20:09.465Z,1.19
2022-12-31T01:22:41.312Z,1.28
2022-12-31T01:25:13.196Z,1.27
2022-12-31T01:27:45.322Z,1.25
2022-12-31T01:30:17.326Z,1.27
2022-12-31T01:32:49.277Z,1.16
2022-12-31T01:35:21.233Z,1.17
2022-12-31T01:37:53.132Z,1.26
2022-12-31T01:40:25.106Z,1.33
2022-12-31T01:42:59.316Z,1.47
2022-12-31T01:45:31.336Z,1.40
2022-12-31T01:48:03.277Z,1.50
2022-12-31T01:50:38.711Z,1.41
2022-12-31T01:53:12.276Z,1.52
2022-12-31T01:55:59.164Z,1.57
2022-12-31T01:58:37.354Z,1.61
2022-12-31T02:01:13.077Z,1.56
2022-12-31T02:03:45.262Z,1.46
2022-12-31T02:06:32.752Z,1.56
2022-12-31T02:09:04.931Z,1.23
2022-12-31T02:11:38.327Z,1.41
2022-12-31T02:14:19.328Z,1.45
2022-12-31T02:16:54.193Z,1.57
2022-12-31T02:19:47.219Z,1.62
2022-12-31T02:22:43.989Z,1.59
2022-12-31T02:25:47.104Z,1.62
2022-12-31T02:28:31.137Z,1.62
2022-12-31T02:31:35.052Z,1.59
2022-12-31T02:34:14.612Z,1.68
2022-12-31T02:36:49.743Z,1.71
2022-12-31T02:39:22.252Z,1.68
2022-12-31T02:41:54.406Z,1.44
2022-12-31T02:44:29.398Z,1.78
2022-12-31T02:47:10.159Z,1.84
2022-12-31T02:50:07.168Z,1.82
2022-12-31T02:52:59.431Z,1.86
2022-12-31T02:55:49.716Z,1.89
2022-12-31T02:58:50.589Z,1.94
2022-12-31T03:01:48.543Z,1.85
2022-12-31T03:04:36.112Z,1.98
2022-12-31T03:07:12.037Z,2.01
2022-12-31T03:09:43.947Z,2.05
2022-12-31T03:12:35.312Z,2.03
2022-12-31T03:15:20.443Z,2.17
2022-12-31T03:17:57.873Z,2.26
2022-12-31T03:20:51.831Z,2.33
2022-12-31T03:23:35.833Z,2.40
2022-12-31T03:26:11.561Z,2.32
2022-12-31T03:28:48.175Z,2.54
2022-12-31T03:31:20.199Z,2.41
2022-12-31T03:33:52.251Z,2.61
2022-12-31T03:36:24.086Z,2.69
2022-12-31T03:38:56.132Z,2.75
2022-12-31T03:41:28.095Z,2.91
2022-12-31T03:44:00.101Z,2.93
2022-12-31T03:46:31.954Z,3.06
2022-12-31T03:49:03.910Z,3.06
2022-12-31T03:51:35.773Z,3.19
2022-12-31T03:54:07.649Z,3.12
2022-12-31T03:56:39.558Z,3.11
2022-12-31T03:59:11.389Z,3.06
2022-12-31T04:01:43.427Z,3.39
2022-12-31T04:04:15.336Z,3.45
2022-12-31T04:06:47.249Z,3.46
2022-12-31T04:09:19.084Z,3.37
2022-12-31T04:11:51.067Z,3.60
2022-12-31T04:14:22.994Z,3.61
2022-12-31T04:16:55.078Z,3.68
2022-12-31T04:19:27.067Z,3.72
2022-12-31T04:21:59.392Z,3.64
2022-12-31T04:24:31.433Z,3.77
2022-12-31T04:27:07.503Z,3.85
2022-12-31T04:29:40.195Z,3.74
2022-12-31T04:32:12.399Z,3.93
2022-12-31T04:34:44.373Z,3.89
2022-12-31T04:37:16.812Z,3.85
2022-12-31T04:39:48.803Z,3.75
2022-12-31T04:42:20.840Z,3.93
2022-12-31T04:44:52.766Z,3.98
2022-12-31T04:47:24.740Z,4.06
2022-12-31T04:49:56.729Z,3.99
2022-12-31T04:52:35.775Z,4.10
2022-12-31T04:55:12.561Z,4.11
2022-12-31T04:57:44.521Z,4.15
2022-12-31T05:00:16.577Z,3.95
2022-12-31T05:02:48.765Z,4.10
2022-12-31T05:05:20.836Z,4.08
2022-12-31T05:07:52.762Z,4.12
2022-12-31T05:10:24.849Z,4.19
2022-12-31T05:12:56.780Z,3.94
2022-12-31T05:15:28.859Z,4.25
2022-12-31T05:18:00.851Z,4.23
2022-12-31T05:20:33.651Z,4.27
2022-12-31T05:23:05.640Z,4.30
2022-12-31T05:25:37.905Z,4.35
2022-12-31T05:28:10.067Z,4.25
2022-12-31T05:30:43.130Z,4.30
2022-12-31T05:33:15.106Z,4.20
2022-12-31T05:35:47.267Z,4.42
2022-12-31T05:38:19.225Z,4.40
2022-12-31T05:40:59.586Z,4.36
2022-12-31T05:43:32.576Z,4.43
2022-12-31T05:46:05.399Z,4.41
2022-12-31T05:48:37.400Z,4.41
2022-12-31T05:51:09.504Z,4.46
2022-12-31T05:53:41.448Z,4.41
2022-12-31T05:56:13.789Z,4.47
2022-12-31T05:58:45.744Z,4.44
2022-12-31T06:01:17.713Z,4.64
2022-12-31T06:03:49.830Z,4.69
2022-12-31T06:06:21.930Z,4.70
2022-12-31T06:08:53.937Z,4.63
2022-12-31T06:11:25.894Z,4.76
2022-12-31T06:13:58.769Z,4.74
2022-12-31T06:16:30.872Z,4.74
2022-12-31T06:19:03.053Z,4.87
2022-12-31T06:21:35.177Z,4.86
2022-12-31T06:24:07.560Z,4.82
2022-12-31T06:26:39.607Z,4.92
2022-12-31T06:29:11.686Z,5.00
2022-12-31T06:31:43.520Z,4.92
2022-12-31T06:34:15.493Z,4.96
2022-12-31T06:36:47.428Z,5.04
2022-12-31T06:39:19.373Z,4.99
2022-12-31T06:41:51.255Z,5.06
2022-12-31T06:44:23.149Z,4.88
2022-12-31T06:46:55.140Z,5.00
2022-12-31T06:49:27.129Z,5.09
2022-12-31T06:51:59.024Z,5.13
2022-12-31T06:54:31.074Z,5.29
2022-12-31T06:57:03.271Z,5.25
2022-12-31T06:59:36.363Z,5.37
2022-12-31T07:02:32.831Z,5.42
2022-12-31T07:05:39.203Z,5.46
2022-12-31T07:08:29.430Z,5.46
2022-12-31T07:11:27.004Z,5.57
2022-12-31T07:14:36.147Z,5.52
2022-12-31T07:17:19.916Z,5.58
2022-12-31T07:20:11.525Z,5.63
2022-12-31T07:22:44.983Z,5.69
2022-12-31T07:25:18.667Z,5.80
2022-12-31T07:27:57.841Z,5.83
2022-12-31T07:30:42.044Z,5.81
2022-12-31T07:33:53.701Z,5.73
2022-12-31T07:36:31.306Z,6.03
2022-12-31T07:39:11.357Z,5.94
2022-12-31T07:42:14.066Z,5.93
2022-12-31T07:45:15.531Z,5.93
2022-12-31T07:47:47.636Z,6.03
2022-12-31T07:50:20.323Z,6.01
2022-12-31T07:52:52.504Z,6.03
2022-12-31T07:55:24.451Z,6.19
2022-12-31T07:58:06.549Z,6.27
2022-12-31T08:00:38.553Z,6.32
2022-12-31T08:03:16.292Z,6.41
2022-12-31T08:06:08.279Z,6.35
2022-12-31T08:08:55.341Z,6.45
2022-12-31T08:11:43.982Z,6.45
2022-12-31T08:14:16.187Z,6.53
2022-12-31T08:16:48.783Z,6.59
2022-12-31T08:19:23.967Z,6.72
2022-12-31T08:22:16.073Z,6.71
2022-12-31T08:25:15.866Z,6.66
2022-12-31T08:27:59.690Z,6.77
2022-12-31T08:30:59.604Z,6.85
2022-12-31T08:34:00.757Z,6.86
2022-12-31T08:37:00.799Z,6.95
2022-12-31T08:40:10.837Z,6.98
2022-12-31T08:43:11.902Z,7.01
2022-12-31T08:45:49.456Z,7.02
2022-12-31T08:48:30.374Z,7.06
2022-12-31T08:51:02.614Z,7.03
2022-12-31T08:53:35.391Z,7.16
2022-12-31T08:56:30.715Z,7.19
2022-12-31T08:59:16.705Z,7.11
2022-12-31T09:01:54.704Z,7.26
2022-12-31T09:04:45.007Z,7.22
2022-12-31T09:07:23.885Z,7.22
2022-12-31T09:10:20.755Z,7.35
2022-12-31T09:12:58.805Z,7.41
2022-12-31T09:15:37.969Z,7.42
2022-12-31T09:18:12.480Z,7.47
2022-12-31T09:20:44.984Z,7.60
2022-12-31T09:23:17.248Z,7.68
2022-12-31T09:26:29.767Z,7.71
2022-12-31T09:29:10.438Z,7.75
2022-12-31T09:32:06.594Z,7.87
2022-12-31T09:34:41.090Z,7.96
2022-12-31T09:37:22.063Z,7.95
2022-12-31T09:39:59.215Z,7.96
2022-12-31T09:42:57.341Z,7.84
2022-12-31T09:45:53.582Z,7.99
2022-12-31T09:48:56.402Z,7.99
2022-12-31T09:51:42.419Z,7.94
2022-12-31T09:54:17.219Z,7.90
2022-12-31T09:57:10.423Z,7.99
2022-12-31T09:59:54.645Z,8.12
2022-12-31T10:03:03.745Z,8.03
2022-12-31T10:05:50.615Z,8.16
2022-12-31T10:08:53.479Z,8.25
2022-12-31T10:11:34.494Z,8.18
2022-12-31T10:14:31.272Z,8.30
2022-12-31T10:17:06.250Z,8.20
2022-12-31T10:19:56.898Z,8.30
2022-12-31T10:22:49.122Z,8.27
2022-12-31T10:25:39.265Z,8.38
2022-12-31T10:28:30.369Z,8.36
2022-12-31T10:31:39.067Z,8.48
2022-12-31T10:34:27.318Z,8.51
2022-12-31T10:37:20.226Z,8.57
2022-12-31T10:40:16.669Z,8.55
2022-12-31T10:43:09.933Z,8.76
2022-12-31T10:46:32.773Z,8.81
2022-12-31T10:49:13.375Z,8.84
2022-12-31T10:52:06.841Z,8.97
2022-12-31T10:54:57.502Z,9.09
2022-12-31T10:57:35.594Z,9.11
2022-12-31T11:00:19.967Z,9.15
2022-12-31T11:03:39.212Z,9.17
2022-12-31T11:06:44.906Z,9.30
2022-12-31T11:09:39.709Z,9.32
2022-12-31T11:12:48.411Z,9.32
2022-12-31T11:15:23.197Z,9.45
2022-12-31T11:18:41.626Z,9.45
2022-12-31T11:21:24.532Z,9.58
2022-12-31T11:24:19.391Z,9.59
2022-12-31T11:27:24.503Z,9.76
2022-12-31T11:30:21.647Z,9.76
2022-12-31T11:32:53.600Z,9.78
2022-12-31T11:36:14.383Z,9.70
2022-12-31T11:38:53.316Z,9.76
2022-12-31T11:41:49.958Z,9.63
2022-12-31T11:44:21.868Z,9.80
2022-12-31T11:47:14.083Z,9.79
2022-12-31T11:49:51.876Z,9.85
2022-12-31T11:52:52.194Z,9.86
2022-12-31T11:55:26.952Z,9.88
2022-12-31T11:58:10.192Z,9.98
2022-12-31T12:00:51.091Z,9.93
2022-12-31T12:03:24.813Z,9.78
2022-12-31T12:05:57.961Z,9.89
2022-12-31T12:08:32.870Z,10.00
2022-12-31T12:11:09.226Z,9.94
2022-12-31T12:13:41.163Z,9.96
2022-12-31T12:16:14.402Z,10.13
2022-12-31T12:18:49.351Z,10.12
2022-12-31T12:21:23.233Z,10.14
2022-12-31T12:24:16.819Z,10.21
2022-12-31T12:26:49.546Z,10.18
2022-12-31T12:29:30.098Z,10.15
2022-12-31T12:32:07.563Z,10.21
2022-12-31T12:34:47.591Z,10.20
2022-12-31T12:37:34.715Z,10.13
2022-12-31T12:40:19.452Z,10.09
2022-12-31T12:42:53.898Z,9.99
2022-12-31T12:45:51.683Z,10.04
2022-12-31T12:48:37.607Z,10.05
2022-12-31T12:51:32.722Z,9.99
2022-12-31T12:54:23.109Z,10.17
2022-12-31T12:56:57.675Z,10.25
2022-12-31T13:00:08.086Z,10.19
2022-12-31T13:02:49.250Z,10.24
2022-12-31T13:05:49.109Z,10.25
2022-12-31T13:08:56.127Z,10.27
2022-12-31T13:11:48.579Z,10.23
2022-12-31T13:14:43.285Z,10.31
2022-12-31T13:17:24.229Z,10.23
2022-12-31T13:20:39.582Z,10.34
2022-12-31T13:23:37.761Z,10.28
2022-12-31T13:26:26.893Z,10.25
2022-12-31T13:28:59.893Z,10.28
2022-12-31T13:31:37.991Z,10.25
2022-12-31T13:34:24.788Z,10.22
2022-12-31T13:37:02.949Z,10.28
2022-12-31T13:39:39.813Z,10.22
2022-12-31T13:42:26.269Z,10.22
2022-12-31T13:45:03.035Z,10.27
2022-12-31T13:47:41.080Z,10.14
2022-12-31T13:50:15.807Z,10.30
2022-12-31T13:53:20.273Z,10.34
2022-12-31T13:55:58.203Z,10.32
2022-12-31T13:58:37.462Z,10.28
2022-12-31T14:01:20.703Z,10.23
2022-12-31T14:04:19.536Z,10.36
2022-12-31T14:07:12.710Z,10.41
2022-12-31T14:09:46.859Z,10.37
2022-12-31T14:12:45.884Z,10.41
2022-12-31T14:15:35.290Z,10.42
2022-12-31T14:18:18.951Z,10.42
2022-12-31T14:20:53.551Z,10.43
2022-12-31T14:23:40.695Z,10.45
2022-12-31T14:26:42.142Z,10.41
2022-12-31T14:29:22.869Z,10.42
2022-12-31T14:32:13.063Z,10.43
2022-12-31T14:35:28.172Z,10.45
2022-12-31T14:38:20.381Z,10.39
2022-12-31T14:40:56.484Z,10.37
2022-12-31T14:43:40.236Z,10.48
2022-12-31T14:46:15.053Z,10.47
2022-12-31T14:49:16.087Z,10.50
2022-12-31T14:51:47.938Z,10.46
2022-12-31T14:54:35.664Z,10.55
2022-12-31T14:57:16.921Z,10.53
2022-12-31T14:59:57.466Z,10.58
2022-12-31T15:02:34.101Z,10.44
2022-12-31T15:05:17.916Z,10.61
2022-12-31T15:07:49.819Z,10.59
2022-12-31T15:10:36.185Z,10.56
2022-12-31T15:13:29.549Z,10.65
2022-12-31T15:16:01.487Z,10.74
2022-12-31T15:18:57.994Z,10.72
2022-12-31T15:21:57.526Z,10.73
2022-12-31T15:24:31.190Z,10.77
2022-12-31T15:27:05.919Z,10.70
2022-12-31T15:29:45.829Z,10.71
2022-12-31T15:32:47.960Z,10.72
2022-12-31T15:35:23.030Z,10.83
2022-12-31T15:38:19.882Z,10.88
2022-12-31T15:40:52.966Z,10.86
2022-12-31T15:43:25.199Z,10.94
2022-12-31T15:45:58.241Z,10.80
2022-12-31T15:48:42.318Z,10.96
2022-12-31T15:51:23.148Z,11.00
2022-12-31T15:53:56.755Z,11.00
2022-12-31T15:56:37.723Z,11.03
2022-12-31T15:59:14.902Z,10.72
2022-12-31T16:01:47.911Z,10.87
2022-12-31T16:04:33.609Z,11.04
2022-12-31T16:07:05.571Z,11.03
2022-12-31T16:09:37.632Z,10.74
2022-12-31T16:12:16.243Z,11.09
2022-12-31T16:14:54.461Z,11.04
2022-12-31T16:17:39.395Z,11.07
2022-12-31T16:20:26.805Z,11.01
2022-12-31T16:23:02.121Z,11.03
2022-12-31T16:25:36.889Z,11.06
2022-12-31T16:28:18.778Z,10.98
2022-12-31T16:31:17.304Z,11.04
2022-12-31T16:33:49.203Z,11.05
2022-12-31T16:36:23.743Z,11.10
2022-12-31T16:39:23.800Z,11.23
2022-12-31T16:42:13.977Z,11.19
2022-12-31T16:44:47.763Z,11.24
2022-12-31T16:47:33.272Z,11.25
2022-12-31T16:50:13.724Z,11.22
2022-12-31T16:52:48.979Z,11.22
2022-12-31T16:55:27.420Z,11.40
2022-12-31T16:58:08.297Z,11.42
2022-12-31T17:00:41.166Z,11.39
2022-12-31T17:03:28.579Z,11.37
2022-12-31T17:06:13.948Z,11.45
2022-12-31T17:08:50.317Z,11.46
2022-12-31T17:11:29.181Z,11.57
2022-12-31T17:14:08.051Z,11.55
2022-12-31T17:17:03.964Z,11.58
2022-12-31T17:19:38.930Z,11.54
2022-12-31T17:22:34.256Z,11.60
2022-12-31T17:25:26.572Z,11.58
2022-12-31T17:28:07.471Z,11.58
2022-12-31T17:30:42.736Z,11.45
2022-12-31T17:33:14.668Z,11.63
2022-12-31T17:35:47.075Z,11.59
2022-12-31T17:38:30.577Z,11.61
2022-12-31T17:41:15.238Z,11.64
2022-12-31T17:43:51.868Z,11.52
2022-12-31T17:46:25.162Z,11.62
2022-12-31T17:49:01.826Z,11.32
2022-12-31T17:51:33.700Z,11.33
2022-12-31T17:54:16.406Z,11.51
2022-12-31T17:56:48.711Z,11.48
2022-12-31T17:59:26.022Z,11.49
2022-12-31T18:02:01.402Z,11.50
2022-12-31T18:04:33.427Z,11.46
2022-12-31T18:07:05.304Z,11.44
2022-12-31T18:09:37.138Z,11.57
2022-12-31T18:12:09.107Z,11.52
2022-12-31T18:14:42.729Z,11.43
2022-12-31T18:17:16.711Z,11.61
2022-12-31T18:20:04.853Z,11.59
2022-12-31T18:22:39.875Z,11.78
2022-12-31T18:25:19.505Z,11.66
2022-12-31T18:27:52.598Z,11.80
2022-12-31T18:30:24.483Z,11.68
2022-12-31T18:32:56.659Z,11.82
2022-12-31T18:38:21.095Z,11.85
2022-12-31T18:40:58.798Z,12.00
2022-12-31T18:43:30.774Z,11.89
2022-12-31T18:46:02.828Z,11.85
2022-12-31T18:48:34.805Z,11.91
2022-12-31T18:51:06.752Z,11.97
2022-12-31T18:53:38.765Z,12.01
2022-12-31T18:56:19.197Z,12.06
2022-12-31T18:58:51.511Z,11.92
2022-12-31T19:01:33.854Z,12.11
2022-12-31T19:04:26.615Z,12.06
2022-12-31T19:07:02.502Z,11.98
2022-12-31T19:09:54.633Z,11.88
2022-12-31T19:12:26.222Z,11.96
2022-12-31T19:14:58.739Z,12.01
2022-12-31T19:17:30.680Z,11.97
2022-12-31T19:20:04.639Z,12.05
2022-12-31T19:22:36.535Z,11.90
2022-12-31T19:25:21.880Z,11.98
2022-12-31T19:27:54.083Z,11.96
2022-12-31T19:30:32.351Z,11.93
2022-12-31T19:33:04.641Z,11.97
2022-12-31T19:35:36.730Z,11.88
2022-12-31T19:38:24.885Z,12.01
2022-12-31T19:40:56.893Z,11.98
2022-12-31T19:43:28.936Z,11.96
2022-12-31T19:46:03.892Z,11.98
2022-12-31T19:48:36.543Z,11.85
2022-12-31T19:51:15.640Z,11.80
2022-12-31T19:53:49.306Z,11.76
2022-12-31T19:56:21.257Z,11.67
2022-12-31T19:58:53.129Z,11.62
2022-12-31T20:01:25.681Z,11.82
2022-12-31T20:03:57.673Z,11.61
2022-12-31T20:06:29.801Z,11.55
2022-12-31T20:09:03.146Z,11.59
2022-12-31T20:11:35.088Z,11.60
2022-12-31T20:14:07.027Z,11.42
2022-12-31T20:16:39.076Z,11.43
2022-12-31T20:19:11.118Z,11.41
2022-12-31T20:21:44.739Z,11.38
2022-12-31T20:24:16.724Z,11.33
2022-12-31T20:26:48.568Z,11.26
2022-12-31T20:29:20.816Z,11.04
2022-12-31T20:31:52.663Z,11.22
2022-12-31T20:34:24.585Z,11.15
2022-12-31T20:36:56.488Z,11.17
2022-12-31T20:39:28.363Z,11.10
2022-12-31T20:42:00.204Z,10.80
2022-12-31T20:44:32.151Z,11.08
2022-12-31T20:47:04.068Z,10.85
2022-12-31T20:50:09.712Z,11.13
2022-12-31T20:52:27.879Z,10.87
2022-12-31T20:54:59.731Z,10.95
2022-12-31T20:57:34.048Z,10.94
2022-12-31T21:00:07.413Z,11.05
2022-12-31T21:02:42.772Z,10.89
2022-12-31T21:05:15.503Z,10.92
2022-12-31T21:07:47.510Z,10.85
2022-12-31T21:10:19.611Z,10.92
2022-12-31T21:12:54.482Z,10.81
2022-12-31T21:15:26.407Z,10.79
2022-12-31T21:18:00.479Z,10.86
2022-12-31T21:20:32.435Z,10.74
2022-12-31T21:23:04.393Z,10.72
2022-12-31T21:25:36.255Z,10.75
2022-12-31T21:28:08.307Z,10.63
2022-12-31T21:30:41.671Z,10.79
2022-12-31T21:33:13.543Z,10.59
2022-12-31T21:35:53.885Z,10.72
2022-12-31T21:38:27.341Z,10.78
2022-12-31T21:41:03.789Z,10.73
2022-12-31T21:43:35.797Z,10.71
2022-12-31T21:46:07.902Z,10.67
2022-12-31T21:48:39.861Z,10.55
2022-12-31T21:51:14.463Z,10.45
2022-12-31T21:53:46.441Z,10.60
2022-12-31T21:56:21.443Z,10.62
2022-12-31T21:59:14.488Z,10.58
2022-12-31T22:02:05.240Z,10.48
2022-12-31T22:05:01.923Z,10.53
2022-12-31T22:07:29.020Z,10.58
2022-12-31T22:10:01.724Z,10.54
2022-12-31T22:12:33.647Z,10.49
2022-12-31T22:15:14.501Z,10.65
2022-12-31T22:17:47.661Z,10.59
2022-12-31T22:20:28.216Z,10.60
2022-12-31T22:23:00.748Z,10.63
2022-12-31T22:25:37.115Z,10.69
2022-12-31T22:28:37.478Z,10.67
2022-12-31T22:31:01.377Z,10.52
2022-12-31T22:33:33.395Z,10.59
2022-12-31T22:36:08.058Z,10.63
2022-12-31T22:38:40.724Z,10.66
2022-12-31T22:41:19.213Z,10.50
2022-12-31T22:44:02.248Z,10.50
2022-12-31T22:46:36.249Z,10.53
2022-12-31T22:49:10.821Z,10.58
2022-12-31T22:51:56.960Z,10.40
2022-12-31T22:54:30.845Z,10.44
2022-12-31T22:57:05.335Z,10.52
2022-12-31T22:59:37.316Z,10.49
2022-12-31T23:02:09.585Z,10.38
2022-12-31T23:04:41.521Z,10.33
2022-12-31T23:07:13.472Z,10.43
2022-12-31T23:10:04.163Z,10.32
2022-12-31T23:12:36.057Z,10.40
2022-12-31T23:15:28.640Z,10.45
2022-12-31T23:18:19.233Z,10.43
2022-12-31T23:21:09.644Z,10.29
2022-12-31T23:23:41.522Z,10.25
2022-12-31T23:26:13.461Z,10.35
2022-12-31T23:28:45.480Z,10.50
2022-12-31T23:31:17.438Z,10.42
2022-12-31T23:33:49.401Z,10.27
2022-12-31T23:36:21.576Z,10.29
2022-12-31T23:38:57.156Z,10.47
2022-12-31T23:41:28.986Z,10.41
2022-12-31T23:44:01.053Z,10.45
2022-12-31T23:46:33.046Z,10.34
2022-12-31T23:49:05.015Z,10.42
2022-12-31T23:51:37.023Z,10.35
2022-12-31T23:54:09.086Z,10.42
2022-12-31T23:56:41.061Z,10.38
2022-12-31T23:59:13.579Z,10.37
